sensor_id;sensor_type;location;lat;lon;timestamp;P1;durP1;ratioP1;P2;durP2;ratioP2
39924;SDS011;25592;49.986;11.618;2022-08-19T00:00:20;17.48;;;14.60;;
39924;SDS011;25592;49.986;11.618;2022-08-19T00:03:06;20.20;;;15.50;;
39924;SDS011;25592;49.986;11.618;2022-08-19T00:05:52;18.10;;;15.15;;
39924;SDS011;25592;49.986;11.618;2022-08-19T00:08:37;22.27;;;15.63;;
39924;SDS011;25592;49.986;11.618;2022-08-19T00:11:27;18.58;;;14.98;;
39924;SDS011;25592;49.986;11.618;2022-08-19T00:14:13;17.67;;;14.60;;
39924;SDS011;25592;49.986;11.618;2022-08-19T00:17:01;17.83;;;14.85;;
39924;SDS011;25592;49.986;11.618;2022-08-19T00:19:47;19.05;;;15.25;;
39924;SDS011;25592;49.986;11.618;2022-08-19T00:22:33;20.77;;;16.83;;
39924;SDS011;25592;49.986;11.618;2022-08-19T00:25:19;19.45;;;15.25;;
39924;SDS011;25592;49.986;11.618;2022-08-19T00:28:14;18.55;;;15.27;;
39924;SDS011;25592;49.986;11.618;2022-08-19T00:31:01;21.73;;;14.18;;
39924;SDS011;25592;49.986;11.618;2022-08-19T00:33:47;19.15;;;15.90;;
39924;SDS011;25592;49.986;11.618;2022-08-19T00:36:36;19.10;;;16.15;;
39924;SDS011;25592;49.986;11.618;2022-08-19T00:39:22;21.77;;;15.13;;
39924;SDS011;25592;49.986;11.618;2022-08-19T00:42:07;19.85;;;14.98;;
39924;SDS011;25592;49.986;11.618;2022-08-19T00:44:53;17.77;;;14.35;;
39924;SDS011;25592;49.986;11.618;2022-08-19T00:47:38;19.23;;;15.25;;
39924;SDS011;25592;49.986;11.618;2022-08-19T00:50:24;20.45;;;15.80;;
39924;SDS011;25592;49.986;11.618;2022-08-19T00:53:10;17.77;;;15.48;;
39924;SDS011;25592;49.986;11.618;2022-08-19T00:55:58;19.38;;;15.35;;
39924;SDS011;25592;49.986;11.618;2022-08-19T00:58:45;19.20;;;15.52;;
39924;SDS011;25592;49.986;11.618;2022-08-19T01:01:30;17.15;;;14.25;;
39924;SDS011;25592;49.986;11.618;2022-08-19T01:04:16;16.63;;;14.25;;
39924;SDS011;25592;49.986;11.618;2022-08-19T01:07:01;17.48;;;14.43;;
39924;SDS011;25592;49.986;11.618;2022-08-19T01:09:47;15.95;;;13.48;;
39924;SDS011;25592;49.986;11.618;2022-08-19T01:12:32;17.45;;;14.07;;
39924;SDS011;25592;49.986;11.618;2022-08-19T01:15:21;16.00;;;13.80;;
39924;SDS011;25592;49.986;11.618;2022-08-19T01:18:14;17.95;;;13.93;;
39924;SDS011;25592;49.986;11.618;2022-08-19T01:21:05;19.27;;;13.95;;
39924;SDS011;25592;49.986;11.618;2022-08-19T01:23:55;18.98;;;15.55;;
39924;SDS011;25592;49.986;11.618;2022-08-19T01:26:41;17.42;;;14.20;;
39924;SDS011;25592;49.986;11.618;2022-08-19T01:29:30;17.45;;;14.55;;
39924;SDS011;25592;49.986;11.618;2022-08-19T01:32:16;16.38;;;13.75;;
39924;SDS011;25592;49.986;11.618;2022-08-19T01:35:18;16.23;;;12.38;;
39924;SDS011;25592;49.986;11.618;2022-08-19T01:38:05;15.55;;;12.50;;
39924;SDS011;25592;49.986;11.618;2022-08-19T01:40:53;15.50;;;12.73;;
39924;SDS011;25592;49.986;11.618;2022-08-19T01:43:39;15.23;;;12.57;;
39924;SDS011;25592;49.986;11.618;2022-08-19T01:46:46;16.95;;;12.65;;
39924;SDS011;25592;49.986;11.618;2022-08-19T01:49:33;15.13;;;12.45;;
39924;SDS011;25592;49.986;11.618;2022-08-19T01:52:18;15.65;;;12.98;;
39924;SDS011;25592;49.986;11.618;2022-08-19T01:55:04;16.92;;;14.38;;
39924;SDS011;25592;49.986;11.618;2022-08-19T01:57:54;16.55;;;13.85;;
39924;SDS011;25592;49.986;11.618;2022-08-19T02:00:42;16.77;;;13.05;;
39924;SDS011;25592;49.986;11.618;2022-08-19T02:03:28;19.35;;;13.10;;
39924;SDS011;25592;49.986;11.618;2022-08-19T02:06:14;17.30;;;14.18;;
39924;SDS011;25592;49.986;11.618;2022-08-19T02:09:02;16.73;;;13.48;;
39924;SDS011;25592;49.986;11.618;2022-08-19T02:11:48;17.10;;;13.27;;
39924;SDS011;25592;49.986;11.618;2022-08-19T02:14:34;15.77;;;12.93;;
39924;SDS011;25592;49.986;11.618;2022-08-19T02:17:20;15.48;;;13.40;;
39924;SDS011;25592;49.986;11.618;2022-08-19T02:20:06;15.60;;;13.00;;
39924;SDS011;25592;49.986;11.618;2022-08-19T02:22:52;17.50;;;14.45;;
39924;SDS011;25592;49.986;11.618;2022-08-19T02:25:37;15.77;;;13.35;;
39924;SDS011;25592;49.986;11.618;2022-08-19T02:28:22;18.52;;;14.57;;
39924;SDS011;25592;49.986;11.618;2022-08-19T02:31:09;20.65;;;14.05;;
39924;SDS011;25592;49.986;11.618;2022-08-19T02:33:57;18.52;;;14.73;;
39924;SDS011;25592;49.986;11.618;2022-08-19T02:36:42;18.40;;;14.43;;
39924;SDS011;25592;49.986;11.618;2022-08-19T02:39:35;22.90;;;15.55;;
39924;SDS011;25592;49.986;11.618;2022-08-19T02:42:20;18.20;;;14.95;;
39924;SDS011;25592;49.986;11.618;2022-08-19T02:45:06;19.15;;;15.40;;
39924;SDS011;25592;49.986;11.618;2022-08-19T02:47:52;20.13;;;15.45;;
39924;SDS011;25592;49.986;11.618;2022-08-19T02:50:38;18.88;;;15.43;;
39924;SDS011;25592;49.986;11.618;2022-08-19T02:53:36;18.50;;;14.35;;
39924;SDS011;25592;49.986;11.618;2022-08-19T02:56:23;19.15;;;15.55;;
39924;SDS011;25592;49.986;11.618;2022-08-19T02:59:09;18.83;;;14.40;;
39924;SDS011;25592;49.986;11.618;2022-08-19T03:01:55;17.65;;;14.52;;
39924;SDS011;25592;49.986;11.618;2022-08-19T03:04:41;18.90;;;14.85;;
39924;SDS011;25592;49.986;11.618;2022-08-19T03:07:26;20.13;;;15.75;;
39924;SDS011;25592;49.986;11.618;2022-08-19T03:10:12;17.35;;;15.30;;
39924;SDS011;25592;49.986;11.618;2022-08-19T03:12:57;17.02;;;14.38;;
39924;SDS011;25592;49.986;11.618;2022-08-19T03:15:48;19.35;;;15.35;;
39924;SDS011;25592;49.986;11.618;2022-08-19T03:18:33;19.13;;;15.52;;
39924;SDS011;25592;49.986;11.618;2022-08-19T03:21:20;20.45;;;16.50;;
39924;SDS011;25592;49.986;11.618;2022-08-19T03:24:08;17.90;;;15.25;;
39924;SDS011;25592;49.986;11.618;2022-08-19T03:26:54;18.33;;;15.75;;
39924;SDS011;25592;49.986;11.618;2022-08-19T03:29:43;18.33;;;15.20;;
39924;SDS011;25592;49.986;11.618;2022-08-19T03:32:28;20.50;;;15.55;;
39924;SDS011;25592;49.986;11.618;2022-08-19T03:35:17;18.42;;;15.57;;
39924;SDS011;25592;49.986;11.618;2022-08-19T03:38:03;23.40;;;15.77;;
39924;SDS011;25592;49.986;11.618;2022-08-19T03:40:49;18.55;;;13.95;;
39924;SDS011;25592;49.986;11.618;2022-08-19T03:43:35;17.00;;;13.85;;
39924;SDS011;25592;49.986;11.618;2022-08-19T03:46:22;18.75;;;15.43;;
39924;SDS011;25592;49.986;11.618;2022-08-19T03:49:10;19.58;;;15.82;;
39924;SDS011;25592;49.986;11.618;2022-08-19T03:51:58;19.30;;;15.93;;
39924;SDS011;25592;49.986;11.618;2022-08-19T03:54:44;20.38;;;16.90;;
39924;SDS011;25592;49.986;11.618;2022-08-19T03:57:30;21.15;;;17.42;;
39924;SDS011;25592;49.986;11.618;2022-08-19T04:00:17;21.52;;;16.92;;
39924;SDS011;25592;49.986;11.618;2022-08-19T04:03:02;26.80;;;19.52;;
39924;SDS011;25592;49.986;11.618;2022-08-19T04:05:48;34.28;;;23.88;;
39924;SDS011;25592;49.986;11.618;2022-08-19T04:08:33;39.47;;;26.52;;
39924;SDS011;25592;49.986;11.618;2022-08-19T04:11:20;30.52;;;20.38;;
39924;SDS011;25592;49.986;11.618;2022-08-19T04:14:28;32.28;;;21.17;;
39924;SDS011;25592;49.986;11.618;2022-08-19T04:17:18;24.73;;;18.08;;
39924;SDS011;25592;49.986;11.618;2022-08-19T04:20:03;22.95;;;17.67;;
39924;SDS011;25592;49.986;11.618;2022-08-19T04:22:51;24.33;;;17.13;;
39924;SDS011;25592;49.986;11.618;2022-08-19T04:25:37;22.88;;;18.40;;
39924;SDS011;25592;49.986;11.618;2022-08-19T04:28:25;18.63;;;15.23;;
39924;SDS011;25592;49.986;11.618;2022-08-19T04:31:14;19.17;;;16.30;;
39924;SDS011;25592;49.986;11.618;2022-08-19T04:34:02;18.13;;;15.38;;
39924;SDS011;25592;49.986;11.618;2022-08-19T04:36:49;21.88;;;16.77;;
39924;SDS011;25592;49.986;11.618;2022-08-19T04:39:35;19.30;;;15.45;;
39924;SDS011;25592;49.986;11.618;2022-08-19T04:42:46;25.27;;;17.30;;
39924;SDS011;25592;49.986;11.618;2022-08-19T04:45:31;19.92;;;14.85;;
39924;SDS011;25592;49.986;11.618;2022-08-19T04:48:28;18.73;;;15.80;;
39924;SDS011;25592;49.986;11.618;2022-08-19T04:51:13;21.67;;;16.13;;
39924;SDS011;25592;49.986;11.618;2022-08-19T04:54:03;19.92;;;15.70;;
39924;SDS011;25592;49.986;11.618;2022-08-19T04:56:49;22.05;;;14.45;;
39924;SDS011;25592;49.986;11.618;2022-08-19T04:59:34;20.10;;;14.27;;
39924;SDS011;25592;49.986;11.618;2022-08-19T05:02:21;20.77;;;15.50;;
39924;SDS011;25592;49.986;11.618;2022-08-19T05:05:09;18.10;;;15.65;;
39924;SDS011;25592;49.986;11.618;2022-08-19T05:07:55;19.23;;;15.43;;
39924;SDS011;25592;49.986;11.618;2022-08-19T05:10:40;16.20;;;14.07;;
39924;SDS011;25592;49.986;11.618;2022-08-19T05:13:26;19.73;;;15.13;;
39924;SDS011;25592;49.986;11.618;2022-08-19T05:16:12;18.08;;;14.82;;
39924;SDS011;25592;49.986;11.618;2022-08-19T05:18:58;18.38;;;15.55;;
39924;SDS011;25592;49.986;11.618;2022-08-19T05:22:02;19.42;;;14.95;;
39924;SDS011;25592;49.986;11.618;2022-08-19T05:25:26;16.80;;;14.30;;
39924;SDS011;25592;49.986;11.618;2022-08-19T05:28:11;18.80;;;15.77;;
39924;SDS011;25592;49.986;11.618;2022-08-19T05:30:57;20.90;;;15.02;;
39924;SDS011;25592;49.986;11.618;2022-08-19T05:33:42;20.75;;;16.80;;
39924;SDS011;25592;49.986;11.618;2022-08-19T05:36:28;19.50;;;15.60;;
39924;SDS011;25592;49.986;11.618;2022-08-19T05:39:19;19.55;;;16.00;;
39924;SDS011;25592;49.986;11.618;2022-08-19T05:42:06;21.42;;;16.83;;
39924;SDS011;25592;49.986;11.618;2022-08-19T05:44:53;21.15;;;16.98;;
39924;SDS011;25592;49.986;11.618;2022-08-19T05:47:38;22.45;;;16.98;;
39924;SDS011;25592;49.986;11.618;2022-08-19T05:50:26;20.13;;;16.17;;
39924;SDS011;25592;49.986;11.618;2022-08-19T05:53:12;21.10;;;16.65;;
39924;SDS011;25592;49.986;11.618;2022-08-19T05:55:57;20.10;;;16.40;;
39924;SDS011;25592;49.986;11.618;2022-08-19T05:58:44;20.88;;;16.88;;
39924;SDS011;25592;49.986;11.618;2022-08-19T06:01:29;20.05;;;16.98;;
39924;SDS011;25592;49.986;11.618;2022-08-19T06:04:14;20.55;;;17.13;;
39924;SDS011;25592;49.986;11.618;2022-08-19T06:07:00;22.40;;;16.70;;
39924;SDS011;25592;49.986;11.618;2022-08-19T06:09:56;21.02;;;16.13;;
39924;SDS011;25592;49.986;11.618;2022-08-19T06:12:44;26.38;;;17.73;;
39924;SDS011;25592;49.986;11.618;2022-08-19T06:15:30;21.15;;;16.88;;
39924;SDS011;25592;49.986;11.618;2022-08-19T06:18:15;24.40;;;17.60;;
39924;SDS011;25592;49.986;11.618;2022-08-19T06:21:01;24.98;;;17.38;;
39924;SDS011;25592;49.986;11.618;2022-08-19T06:23:49;26.42;;;19.60;;
39924;SDS011;25592;49.986;11.618;2022-08-19T06:26:36;27.40;;;19.33;;
39924;SDS011;25592;49.986;11.618;2022-08-19T06:29:25;24.48;;;18.50;;
39924;SDS011;25592;49.986;11.618;2022-08-19T06:32:11;27.25;;;18.70;;
39924;SDS011;25592;49.986;11.618;2022-08-19T06:34:59;28.35;;;19.58;;
39924;SDS011;25592;49.986;11.618;2022-08-19T06:37:45;22.38;;;16.58;;
39924;SDS011;25592;49.986;11.618;2022-08-19T06:40:30;25.40;;;20.15;;
39924;SDS011;25592;49.986;11.618;2022-08-19T06:43:16;26.63;;;19.27;;
39924;SDS011;25592;49.986;11.618;2022-08-19T06:46:02;30.75;;;21.42;;
39924;SDS011;25592;49.986;11.618;2022-08-19T06:48:50;31.27;;;21.67;;
39924;SDS011;25592;49.986;11.618;2022-08-19T06:51:37;31.02;;;21.15;;
39924;SDS011;25592;49.986;11.618;2022-08-19T06:54:27;31.05;;;20.60;;
39924;SDS011;25592;49.986;11.618;2022-08-19T06:57:14;31.38;;;21.38;;
39924;SDS011;25592;49.986;11.618;2022-08-19T07:00:00;23.55;;;18.73;;
39924;SDS011;25592;49.986;11.618;2022-08-19T07:02:47;28.15;;;19.80;;
39924;SDS011;25592;49.986;11.618;2022-08-19T07:05:42;27.23;;;20.80;;
39924;SDS011;25592;49.986;11.618;2022-08-19T07:08:30;30.23;;;21.92;;
39924;SDS011;25592;49.986;11.618;2022-08-19T07:11:16;28.15;;;19.98;;
39924;SDS011;25592;49.986;11.618;2022-08-19T07:14:03;29.50;;;21.88;;
39924;SDS011;25592;49.986;11.618;2022-08-19T07:16:50;26.90;;;20.83;;
39924;SDS011;25592;49.986;11.618;2022-08-19T07:19:39;26.15;;;19.77;;
39924;SDS011;25592;49.986;11.618;2022-08-19T07:22:26;27.58;;;19.20;;
39924;SDS011;25592;49.986;11.618;2022-08-19T07:25:12;26.50;;;19.25;;
39924;SDS011;25592;49.986;11.618;2022-08-19T07:27:57;28.23;;;20.02;;
39924;SDS011;25592;49.986;11.618;2022-08-19T07:30:45;23.13;;;18.30;;
39924;SDS011;25592;49.986;11.618;2022-08-19T07:33:30;23.27;;;18.80;;
39924;SDS011;25592;49.986;11.618;2022-08-19T07:36:19;22.70;;;17.70;;
39924;SDS011;25592;49.986;11.618;2022-08-19T07:39:21;25.38;;;18.38;;
39924;SDS011;25592;49.986;11.618;2022-08-19T07:42:10;30.05;;;18.83;;
39924;SDS011;25592;49.986;11.618;2022-08-19T07:44:57;21.75;;;17.17;;
39924;SDS011;25592;49.986;11.618;2022-08-19T07:47:43;25.90;;;18.80;;
39924;SDS011;25592;49.986;11.618;2022-08-19T07:50:34;24.65;;;18.00;;
39924;SDS011;25592;49.986;11.618;2022-08-19T07:53:20;26.55;;;19.58;;
39924;SDS011;25592;49.986;11.618;2022-08-19T07:56:06;30.52;;;19.05;;
39924;SDS011;25592;49.986;11.618;2022-08-19T07:58:51;25.65;;;18.77;;
39924;SDS011;25592;49.986;11.618;2022-08-19T08:01:37;27.83;;;17.80;;
39924;SDS011;25592;49.986;11.618;2022-08-19T08:04:25;22.45;;;17.98;;
39924;SDS011;25592;49.986;11.618;2022-08-19T08:07:30;23.60;;;18.02;;
39924;SDS011;25592;49.986;11.618;2022-08-19T08:10:34;23.70;;;18.33;;
39924;SDS011;25592;49.986;11.618;2022-08-19T08:13:19;23.42;;;18.58;;
39924;SDS011;25592;49.986;11.618;2022-08-19T08:16:05;23.15;;;16.98;;
39924;SDS011;25592;49.986;11.618;2022-08-19T08:18:57;21.40;;;15.88;;
39924;SDS011;25592;49.986;11.618;2022-08-19T08:21:44;20.88;;;15.95;;
39924;SDS011;25592;49.986;11.618;2022-08-19T08:24:30;20.70;;;15.88;;
39924;SDS011;25592;49.986;11.618;2022-08-19T08:27:15;18.75;;;14.77;;
39924;SDS011;25592;49.986;11.618;2022-08-19T08:30:02;19.90;;;15.40;;
39924;SDS011;25592;49.986;11.618;2022-08-19T08:32:51;18.27;;;13.77;;
39924;SDS011;25592;49.986;11.618;2022-08-19T08:35:36;18.58;;;13.90;;
39924;SDS011;25592;49.986;11.618;2022-08-19T08:38:22;16.77;;;12.30;;
39924;SDS011;25592;49.986;11.618;2022-08-19T08:44:17;19.90;;;13.40;;
39924;SDS011;25592;49.986;11.618;2022-08-19T08:47:09;17.05;;;12.77;;
39924;SDS011;25592;49.986;11.618;2022-08-19T08:52:50;16.65;;;11.48;;
39924;SDS011;25592;49.986;11.618;2022-08-19T08:55:39;18.38;;;13.52;;
39924;SDS011;25592;49.986;11.618;2022-08-19T08:58:28;16.40;;;11.70;;
39924;SDS011;25592;49.986;11.618;2022-08-19T09:01:38;16.70;;;13.23;;
39924;SDS011;25592;49.986;11.618;2022-08-19T09:04:24;19.77;;;14.43;;
39924;SDS011;25592;49.986;11.618;2022-08-19T09:13:31;18.48;;;14.02;;
39924;SDS011;25592;49.986;11.618;2022-08-19T09:16:51;20.95;;;14.65;;
39924;SDS011;25592;49.986;11.618;2022-08-19T09:19:50;20.65;;;15.65;;
39924;SDS011;25592;49.986;11.618;2022-08-19T09:22:38;23.20;;;15.00;;
39924;SDS011;25592;49.986;11.618;2022-08-19T09:25:25;24.10;;;16.20;;
39924;SDS011;25592;49.986;11.618;2022-08-19T09:28:13;21.15;;;16.05;;
39924;SDS011;25592;49.986;11.618;2022-08-19T09:31:10;23.40;;;16.20;;
39924;SDS011;25592;49.986;11.618;2022-08-19T09:33:56;23.25;;;15.07;;
39924;SDS011;25592;49.986;11.618;2022-08-19T09:36:42;23.33;;;15.07;;
39924;SDS011;25592;49.986;11.618;2022-08-19T09:39:27;22.17;;;15.77;;
39924;SDS011;25592;49.986;11.618;2022-08-19T09:42:19;20.58;;;14.85;;
39924;SDS011;25592;49.986;11.618;2022-08-19T09:45:15;24.50;;;17.20;;
39924;SDS011;25592;49.986;11.618;2022-08-19T09:48:01;20.00;;;13.63;;
39924;SDS011;25592;49.986;11.618;2022-08-19T09:50:47;21.95;;;13.65;;
39924;SDS011;25592;49.986;11.618;2022-08-19T09:53:36;21.33;;;15.82;;
39924;SDS011;25592;49.986;11.618;2022-08-19T09:56:23;24.35;;;16.83;;
39924;SDS011;25592;49.986;11.618;2022-08-19T09:59:09;22.42;;;16.25;;
39924;SDS011;25592;49.986;11.618;2022-08-19T10:01:55;21.77;;;16.98;;
39924;SDS011;25592;49.986;11.618;2022-08-19T10:04:47;22.75;;;16.92;;
39924;SDS011;25592;49.986;11.618;2022-08-19T10:07:51;25.10;;;16.73;;
39924;SDS011;25592;49.986;11.618;2022-08-19T10:10:41;23.92;;;16.02;;
39924;SDS011;25592;49.986;11.618;2022-08-19T10:13:30;22.77;;;15.43;;
39924;SDS011;25592;49.986;11.618;2022-08-19T10:16:21;26.73;;;16.42;;
39924;SDS011;25592;49.986;11.618;2022-08-19T10:19:10;21.95;;;14.68;;
39924;SDS011;25592;49.986;11.618;2022-08-19T10:21:55;19.85;;;14.90;;
39924;SDS011;25592;49.986;11.618;2022-08-19T10:24:47;24.88;;;15.80;;
39924;SDS011;25592;49.986;11.618;2022-08-19T10:27:33;24.70;;;17.30;;
39924;SDS011;25592;49.986;11.618;2022-08-19T10:30:19;21.20;;;14.80;;
39924;SDS011;25592;49.986;11.618;2022-08-19T10:33:08;22.58;;;15.80;;
39924;SDS011;25592;49.986;11.618;2022-08-19T10:35:59;21.67;;;16.08;;
39924;SDS011;25592;49.986;11.618;2022-08-19T10:38:46;22.52;;;14.98;;
39924;SDS011;25592;49.986;11.618;2022-08-19T10:41:40;22.38;;;15.02;;
39924;SDS011;25592;49.986;11.618;2022-08-19T10:44:28;20.73;;;14.88;;
39924;SDS011;25592;49.986;11.618;2022-08-19T10:47:16;19.48;;;14.00;;
39924;SDS011;25592;49.986;11.618;2022-08-19T10:50:09;18.80;;;13.10;;
39924;SDS011;25592;49.986;11.618;2022-08-19T10:53:14;17.90;;;12.70;;
39924;SDS011;25592;49.986;11.618;2022-08-19T10:55:59;17.10;;;12.85;;
39924;SDS011;25592;49.986;11.618;2022-08-19T10:59:04;17.73;;;11.88;;
39924;SDS011;25592;49.986;11.618;2022-08-19T11:01:50;15.95;;;12.73;;
39924;SDS011;25592;49.986;11.618;2022-08-19T11:04:39;14.40;;;11.27;;
39924;SDS011;25592;49.986;11.618;2022-08-19T11:07:25;15.40;;;11.63;;
39924;SDS011;25592;49.986;11.618;2022-08-19T11:10:12;16.92;;;10.35;;
39924;SDS011;25592;49.986;11.618;2022-08-19T11:13:05;12.15;;;10.30;;
39924;SDS011;25592;49.986;11.618;2022-08-19T11:16:01;14.27;;;9.57;;
39924;SDS011;25592;49.986;11.618;2022-08-19T11:18:53;12.75;;;9.43;;
39924;SDS011;25592;49.986;11.618;2022-08-19T11:21:43;12.52;;;9.60;;
39924;SDS011;25592;49.986;11.618;2022-08-19T11:24:32;12.73;;;10.07;;
39924;SDS011;25592;49.986;11.618;2022-08-19T11:27:18;12.60;;;10.43;;
39924;SDS011;25592;49.986;11.618;2022-08-19T11:30:03;10.70;;;9.48;;
39924;SDS011;25592;49.986;11.618;2022-08-19T11:32:51;13.52;;;9.65;;
39924;SDS011;25592;49.986;11.618;2022-08-19T11:35:38;12.13;;;9.10;;
39924;SDS011;25592;49.986;11.618;2022-08-19T11:38:26;13.27;;;9.48;;
39924;SDS011;25592;49.986;11.618;2022-08-19T11:41:11;11.27;;;9.50;;
39924;SDS011;25592;49.986;11.618;2022-08-19T11:43:56;14.65;;;10.23;;
39924;SDS011;25592;49.986;11.618;2022-08-19T11:46:42;12.23;;;9.48;;
39924;SDS011;25592;49.986;11.618;2022-08-19T11:49:31;12.40;;;9.48;;
39924;SDS011;25592;49.986;11.618;2022-08-19T11:52:16;16.65;;;10.48;;
39924;SDS011;25592;49.986;11.618;2022-08-19T11:55:02;11.32;;;9.25;;
39924;SDS011;25592;49.986;11.618;2022-08-19T11:57:47;12.85;;;9.70;;
39924;SDS011;25592;49.986;11.618;2022-08-19T12:00:33;12.40;;;9.43;;
39924;SDS011;25592;49.986;11.618;2022-08-19T12:03:21;10.98;;;8.35;;
39924;SDS011;25592;49.986;11.618;2022-08-19T12:06:10;11.70;;;8.80;;
39924;SDS011;25592;49.986;11.618;2022-08-19T12:09:01;11.25;;;7.72;;
39924;SDS011;25592;49.986;11.618;2022-08-19T12:11:49;10.30;;;8.70;;
39924;SDS011;25592;49.986;11.618;2022-08-19T12:14:35;13.65;;;10.18;;
39924;SDS011;25592;49.986;11.618;2022-08-19T12:17:20;12.00;;;8.48;;
39924;SDS011;25592;49.986;11.618;2022-08-19T12:20:06;12.15;;;8.20;;
39924;SDS011;25592;49.986;11.618;2022-08-19T12:22:53;10.85;;;7.93;;
39924;SDS011;25592;49.986;11.618;2022-08-19T12:25:45;13.18;;;8.77;;
39924;SDS011;25592;49.986;11.618;2022-08-19T12:28:34;13.02;;;9.05;;
39924;SDS011;25592;49.986;11.618;2022-08-19T12:31:19;13.30;;;9.30;;
39924;SDS011;25592;49.986;11.618;2022-08-19T12:34:05;13.82;;;9.55;;
39924;SDS011;25592;49.986;11.618;2022-08-19T12:36:53;13.38;;;8.85;;
39924;SDS011;25592;49.986;11.618;2022-08-19T12:39:39;11.95;;;8.60;;
39924;SDS011;25592;49.986;11.618;2022-08-19T12:42:26;12.35;;;8.93;;
39924;SDS011;25592;49.986;11.618;2022-08-19T12:45:12;10.05;;;7.45;;
39924;SDS011;25592;49.986;11.618;2022-08-19T12:47:58;8.43;;;6.50;;
39924;SDS011;25592;49.986;11.618;2022-08-19T12:50:44;12.00;;;7.85;;
39924;SDS011;25592;49.986;11.618;2022-08-19T12:53:30;11.88;;;7.80;;
39924;SDS011;25592;49.986;11.618;2022-08-19T12:56:15;11.88;;;7.68;;
39924;SDS011;25592;49.986;11.618;2022-08-19T12:59:06;10.82;;;7.40;;
39924;SDS011;25592;49.986;11.618;2022-08-19T13:01:52;9.77;;;7.60;;
39924;SDS011;25592;49.986;11.618;2022-08-19T13:04:38;10.43;;;7.35;;
39924;SDS011;25592;49.986;11.618;2022-08-19T13:07:25;11.25;;;8.10;;
39924;SDS011;25592;49.986;11.618;2022-08-19T13:10:11;10.98;;;7.45;;
39924;SDS011;25592;49.986;11.618;2022-08-19T13:13:00;10.95;;;7.53;;
39924;SDS011;25592;49.986;11.618;2022-08-19T13:15:52;12.88;;;7.75;;
39924;SDS011;25592;49.986;11.618;2022-08-19T13:18:49;10.43;;;7.65;;
39924;SDS011;25592;49.986;11.618;2022-08-19T13:21:37;12.15;;;7.30;;
39924;SDS011;25592;49.986;11.618;2022-08-19T13:24:26;12.15;;;8.75;;
39924;SDS011;25592;49.986;11.618;2022-08-19T13:27:17;10.25;;;8.18;;
39924;SDS011;25592;49.986;11.618;2022-08-19T13:30:03;9.10;;;7.00;;
39924;SDS011;25592;49.986;11.618;2022-08-19T13:33:09;8.13;;;6.65;;
39924;SDS011;25592;49.986;11.618;2022-08-19T13:36:01;8.95;;;6.93;;
39924;SDS011;25592;49.986;11.618;2022-08-19T13:38:46;10.43;;;6.95;;
39924;SDS011;25592;49.986;11.618;2022-08-19T13:41:32;8.43;;;6.85;;
39924;SDS011;25592;49.986;11.618;2022-08-19T13:44:18;13.73;;;8.63;;
39924;SDS011;25592;49.986;11.618;2022-08-19T13:47:04;8.85;;;6.57;;
39924;SDS011;25592;49.986;11.618;2022-08-19T13:49:51;6.93;;;5.57;;
39924;SDS011;25592;49.986;11.618;2022-08-19T13:52:37;7.50;;;6.65;;
39924;SDS011;25592;49.986;11.618;2022-08-19T13:55:24;6.35;;;5.18;;
39924;SDS011;25592;49.986;11.618;2022-08-19T13:58:10;7.13;;;5.60;;
39924;SDS011;25592;49.986;11.618;2022-08-19T14:00:56;6.75;;;5.30;;
39924;SDS011;25592;49.986;11.618;2022-08-19T14:03:42;7.15;;;5.55;;
39924;SDS011;25592;49.986;11.618;2022-08-19T14:06:31;9.50;;;6.35;;
39924;SDS011;25592;49.986;11.618;2022-08-19T14:09:17;7.65;;;5.18;;
39924;SDS011;25592;49.986;11.618;2022-08-19T14:12:02;5.88;;;4.45;;
39924;SDS011;25592;49.986;11.618;2022-08-19T14:14:49;6.25;;;4.65;;
39924;SDS011;25592;49.986;11.618;2022-08-19T14:17:34;6.65;;;4.88;;
39924;SDS011;25592;49.986;11.618;2022-08-19T14:23:11;7.22;;;6.20;;
39924;SDS011;25592;49.986;11.618;2022-08-19T14:26:08;8.30;;;6.22;;
39924;SDS011;25592;49.986;11.618;2022-08-19T14:28:54;6.85;;;5.13;;
39924;SDS011;25592;49.986;11.618;2022-08-19T14:31:42;7.20;;;5.40;;
39924;SDS011;25592;49.986;11.618;2022-08-19T14:34:28;7.13;;;5.57;;
39924;SDS011;25592;49.986;11.618;2022-08-19T14:37:16;9.07;;;7.07;;
39924;SDS011;25592;49.986;11.618;2022-08-19T14:40:02;8.02;;;6.13;;
39924;SDS011;25592;49.986;11.618;2022-08-19T14:42:48;8.55;;;6.72;;
39924;SDS011;25592;49.986;11.618;2022-08-19T14:45:35;9.75;;;7.20;;
39924;SDS011;25592;49.986;11.618;2022-08-19T14:48:21;9.80;;;7.03;;
39924;SDS011;25592;49.986;11.618;2022-08-19T14:51:12;11.32;;;8.13;;
39924;SDS011;25592;49.986;11.618;2022-08-19T14:53:58;11.13;;;8.18;;
39924;SDS011;25592;49.986;11.618;2022-08-19T14:56:44;9.93;;;8.05;;
39924;SDS011;25592;49.986;11.618;2022-08-19T14:59:29;11.88;;;9.32;;
39924;SDS011;25592;49.986;11.618;2022-08-19T15:02:15;13.57;;;9.77;;
39924;SDS011;25592;49.986;11.618;2022-08-19T15:05:18;11.40;;;8.65;;
39924;SDS011;25592;49.986;11.618;2022-08-19T15:08:04;11.32;;;8.75;;
39924;SDS011;25592;49.986;11.618;2022-08-19T15:10:50;14.55;;;9.27;;
39924;SDS011;25592;49.986;11.618;2022-08-19T15:13:36;9.73;;;7.78;;
39924;SDS011;25592;49.986;11.618;2022-08-19T15:16:22;11.02;;;8.38;;
39924;SDS011;25592;49.986;11.618;2022-08-19T15:19:09;12.18;;;9.25;;
39924;SDS011;25592;49.986;11.618;2022-08-19T15:21:56;15.68;;;10.82;;
39924;SDS011;25592;49.986;11.618;2022-08-19T15:24:42;12.50;;;8.77;;
39924;SDS011;25592;49.986;11.618;2022-08-19T15:27:32;11.80;;;9.32;;
39924;SDS011;25592;49.986;11.618;2022-08-19T15:30:20;12.48;;;9.50;;
39924;SDS011;25592;49.986;11.618;2022-08-19T15:33:07;15.50;;;10.30;;
39924;SDS011;25592;49.986;11.618;2022-08-19T15:35:54;11.40;;;9.27;;
39924;SDS011;25592;49.986;11.618;2022-08-19T15:38:42;13.45;;;10.00;;
39924;SDS011;25592;49.986;11.618;2022-08-19T15:41:29;16.25;;;9.73;;
39924;SDS011;25592;49.986;11.618;2022-08-19T15:44:16;13.75;;;8.60;;
39924;SDS011;25592;49.986;11.618;2022-08-19T15:47:02;12.98;;;9.82;;
39924;SDS011;25592;49.986;11.618;2022-08-19T15:49:47;13.05;;;9.90;;
39924;SDS011;25592;49.986;11.618;2022-08-19T15:52:33;15.07;;;10.23;;
39924;SDS011;25592;49.986;11.618;2022-08-19T15:55:24;13.95;;;11.80;;
39924;SDS011;25592;49.986;11.618;2022-08-19T15:58:18;15.38;;;12.35;;
39924;SDS011;25592;49.986;11.618;2022-08-19T16:01:22;15.90;;;12.10;;
39924;SDS011;25592;49.986;11.618;2022-08-19T16:04:27;14.68;;;11.18;;
39924;SDS011;25592;49.986;11.618;2022-08-19T16:07:31;16.80;;;11.95;;
39924;SDS011;25592;49.986;11.618;2022-08-19T16:10:16;15.98;;;11.27;;
39924;SDS011;25592;49.986;11.618;2022-08-19T16:13:11;19.30;;;12.10;;
39924;SDS011;25592;49.986;11.618;2022-08-19T16:15:57;14.30;;;10.73;;
39924;SDS011;25592;49.986;11.618;2022-08-19T16:18:42;12.93;;;10.55;;
39924;SDS011;25592;49.986;11.618;2022-08-19T16:21:28;17.52;;;11.40;;
39924;SDS011;25592;49.986;11.618;2022-08-19T16:24:18;16.35;;;11.50;;
39924;SDS011;25592;49.986;11.618;2022-08-19T16:27:05;13.45;;;11.20;;
39924;SDS011;25592;49.986;11.618;2022-08-19T16:29:50;13.93;;;11.48;;